Time;durP1;ratioP1;P1;durP2;ratioP2;P2;SDS_P1;SDS_P2;PMS_P1;PMS_P2;Temp;Humidity;BMP_temperature;BMP_pressure;BME280_temperature;BME280_humidity;BME280_pressure;Samples;Min_cycle;Max_cycle;Signal;HPM_P1;HPM_P2
2022/10/02 00:00:48;;;;;;;3.15;1.50;;;16.20;65.60;;;;;;4997709;28;20062;-71
2022/10/02 00:03:20;;;;;;;3.05;1.27;;;16.20;65.60;;;;;;4994419;28;20145;-70
2022/10/02 00:05:48;;;;;;;2.05;1.40;;;16.30;65.70;;;;;;4993926;28;20054;-70
2022/10/02 00:08:17;;;;;;;2.83;1.58;;;16.20;65.70;;;;;;4993465;28;20496;-70
2022/10/02 00:10:47;;;;;;;1.98;1.30;;;16.20;65.70;;;;;;4994515;28;20072;-70
2022/10/02 00:13:17;;;;;;;2.72;1.27;;;16.30;65.70;;;;;;4993812;28;20058;-70
2022/10/02 00:15:44;;;;;;;2.28;1.35;;;16.20;65.70;;;;;;4993593;28;20141;-70
2022/10/02 00:18:12;;;;;;;2.20;1.30;;;16.20;65.70;;;;;;4993068;28;20061;-70
2022/10/02 00:20:43;;;;;;;1.75;1.25;;;16.20;65.70;;;;;;4993342;28;20054;-69
2022/10/02 00:23:12;;;;;;;4.57;1.30;;;16.20;65.70;;;;;;4994260;28;20054;-71
2022/10/02 00:25:42;;;;;;;2.35;1.40;;;16.20;65.70;;;;;;4995525;28;20445;-71
2022/10/02 00:28:14;;;;;;;2.80;1.35;;;16.20;65.70;;;;;;4995796;28;20052;-70
2022/10/02 00:30:47;;;;;;;3.75;1.40;;;16.20;65.70;;;;;;4994035;28;20046;-71
2022/10/02 00:33:17;;;;;;;2.10;1.20;;;16.20;65.70;;;;;;4993402;28;20058;-70
2022/10/02 00:36:00;;;;;;;2.30;1.23;;;16.20;65.70;;;;;;4994354;28;20137;-71
2022/10/02 00:38:34;;;;;;;2.55;1.30;;;16.20;65.70;;;;;;4994010;28;20075;-71
2022/10/02 00:41:26;;;;;;;1.98;1.23;;;16.20;65.80;;;;;;4994843;28;20046;-71
2022/10/02 00:44:10;;;;;;;2.20;1.20;;;16.20;65.70;;;;;;4989261;28;20054;-71
2022/10/02 00:46:41;;;;;;;3.05;1.45;;;16.20;65.80;;;;;;4994236;28;20070;-72
2022/10/02 00:49:19;;;;;;;2.45;1.40;;;16.20;65.80;;;;;;4994312;28;20054;-72
2022/10/02 00:51:56;;;;;;;3.25;1.60;;;16.20;65.80;;;;;;4994667;28;20062;-72
2022/10/02 00:54:44;;;;;;;3.17;1.40;;;16.20;65.80;;;;;;4995043;28;20062;-72
2022/10/02 00:57:13;;;;;;;1.77;1.17;;;16.20;65.80;;;;;;4995966;28;20042;-72
2022/10/02 00:59:49;;;;;;;2.65;1.35;;;16.20;65.80;;;;;;4993790;28;20407;-70
2022/10/02 01:02:44;;;;;;;2.22;1.38;;;16.20;65.80;;;;;;4992394;28;20623;-70
2022/10/02 01:05:11;;;;;;;2.20;1.17;;;16.20;65.70;;;;;;4992290;28;20136;-70
2022/10/02 01:07:40;;;;;;;1.83;1.10;;;16.10;65.80;;;;;;4992625;28;20404;-70
2022/10/02 01:10:08;;;;;;;1.65;1.10;;;16.10;65.70;;;;;;4993772;28;20554;-72
2022/10/02 01:12:36;;;;;;;3.05;1.27;;;16.10;65.70;;;;;;4995797;28;20050;-72
2022/10/02 01:15:11;;;;;;;2.95;1.38;;;16.10;65.70;;;;;;4996121;28;20426;-71
2022/10/02 01:17:41;;;;;;;2.88;1.35;;;16.20;66.80;;;;;;4995291;28;20050;-71
2022/10/02 01:20:11;;;;;;;2.38;1.38;;;16.10;65.80;;;;;;4994173;28;20051;-72
2022/10/02 01:22:42;;;;;;;3.03;1.55;;;16.10;65.70;;;;;;4993845;28;20054;-72
2022/10/02 01:25:10;;;;;;;1.90;1.13;;;16.10;65.70;;;;;;4995083;28;20061;-72
2022/10/02 01:27:37;;;;;;;2.22;1.40;;;16.10;65.70;;;;;;4995013;28;20407;-71
2022/10/02 01:30:06;;;;;;;2.47;1.20;;;16.10;65.70;;;;;;4993151;28;20054;-72
2022/10/02 01:32:33;;;;;;;3.10;1.50;;;18.10;66.80;;;;;;4994908;28;20050;-72
2022/10/02 01:35:01;;;;;;;2.15;1.30;;;16.10;65.70;;;;;;4994904;28;20448;-71
2022/10/02 01:37:29;;;;;;;2.60;1.55;;;16.10;65.70;;;;;;4993080;28;20057;-70
2022/10/02 01:39:56;;;;;;;3.05;1.17;;;16.10;65.80;;;;;;4992661;28;20050;-71
2022/10/02 01:42:24;;;;;;;2.30;1.30;;;16.10;65.70;;;;;;4991927;28;20054;-71
2022/10/02 01:44:51;;;;;;;1.85;1.27;;;16.10;65.70;;;;;;4992102;28;20552;-71
2022/10/02 01:47:18;;;;;;;2.60;1.40;;;16.10;65.80;;;;;;4993143;28;20094;-71
2022/10/02 01:49:54;;;;;;;3.08;1.30;;;16.10;65.80;;;;;;4991835;28;20145;-71
2022/10/02 01:52:28;;;;;;;1.90;1.30;;;16.10;65.70;;;;;;4992880;28;20062;-71
2022/10/02 01:55:15;;;;;;;2.67;1.30;;;16.20;65.80;;;;;;4991984;28;20089;-70
2022/10/02 01:57:59;;;;;;;1.80;1.17;;;16.10;65.80;;;;;;4992731;28;20508;-70
2022/10/02 02:00:26;;;;;;;1.98;1.20;;;16.10;65.80;;;;;;4991923;28;20054;-70
2022/10/02 02:02:56;;;;;;;2.67;1.15;;;16.10;65.80;;;;;;4996060;28;20407;-70
2022/10/02 02:05:32;;;;;;;2.03;1.10;;;16.10;65.80;;;;;;4996146;28;20496;-71
2022/10/02 02:08:00;;;;;;;;;;;16.10;65.80;;;;;;4996295;28;20068;-70
2022/10/02 02:10:34;;;;;;;1.35;1.10;;;16.00;65.70;;;;;;4994750;28;19921;-70
2022/10/02 02:13:03;;;;;;;2.25;1.20;;;16.10;65.90;;;;;;4994316;28;20137;-70
2022/10/02 02:15:34;;;;;;;1.88;1.20;;;16.10;65.90;;;;;;4995729;28;20046;-71
2022/10/02 02:18:03;;;;;;;1.85;1.35;;;16.00;65.80;;;;;;4991654;28;20054;-70
2022/10/02 02:20:30;;;;;;;1.75;1.23;;;16.10;65.90;;;;;;4994349;28;20119;-70
2022/10/02 02:22:59;;;;;;;2.80;1.25;;;16.00;65.80;;;;;;4995498;28;20050;-70
2022/10/02 02:25:27;;;;;;;1.73;1.30;;;16.00;65.80;;;;;;4995592;28;20056;-71
2022/10/02 02:27:55;;;;;;;1.92;1.17;;;16.00;65.80;;;;;;4994373;28;20057;-71
2022/10/02 02:30:24;;;;;;;1.70;1.20;;;16.00;65.80;;;;;;4994392;28;20058;-70
2022/10/02 02:32:51;;;;;;;2.00;1.30;;;16.00;65.80;;;;;;4994486;28;20082;-70
2022/10/02 02:35:20;;;;;;;1.92;1.30;;;16.00;65.80;;;;;;4993338;28;20479;-70
2022/10/02 02:37:46;;;;;;;2.75;1.20;;;16.00;65.80;;;;;;4991084;28;20072;-71
2022/10/02 02:40:14;;;;;;;2.38;1.30;;;16.00;65.80;;;;;;4990857;28;20054;-71
2022/10/02 02:42:42;;;;;;;1.98;1.38;;;16.00;65.80;;;;;;4992201;28;20054;-71
2022/10/02 02:45:11;;;;;;;1.73;1.15;;;16.00;65.80;;;;;;4992369;28;20054;-71
2022/10/02 02:47:41;;;;;;;1.90;1.08;;;16.00;65.80;;;;;;4990908;28;20046;-71
2022/10/02 02:50:10;;;;;;;1.67;1.15;;;16.00;65.80;;;;;;4990859;28;20061;-71
2022/10/02 02:52:39;;;;;;;1.65;1.20;;;16.00;65.80;;;;;;4991026;28;20062;-70
2022/10/02 02:55:07;;;;;;;4.55;1.45;;;16.00;65.80;;;;;;4991030;28;20445;-70
2022/10/02 02:57:37;;;;;;;1.98;1.20;;;16.00;65.80;;;;;;4990822;28;20153;-70
2022/10/02 03:00:04;;;;;;;2.53;1.30;;;16.00;65.80;;;;;;4990866;28;20072;-71
2022/10/02 03:02:31;;;;;;;2.63;1.25;;;16.00;65.80;;;;;;4990663;28;20058;-70
2022/10/02 03:04:59;;;;;;;1.92;1.15;;;16.00;65.80;;;;;;4990985;28;20089;-70
2022/10/02 03:07:26;;;;;;;1.95;1.20;;;16.00;65.80;;;;;;4990569;28;20055;-70
2022/10/02 03:09:57;;;;;;;1.67;1.20;;;16.00;65.80;;;;;;4990911;28;20050;-70
2022/10/02 03:12:28;;;;;;;1.30;1.00;;;16.00;65.80;;;;;;4994728;28;20070;-71
2022/10/02 03:15:14;;;;;;;1.67;1.10;;;16.00;65.80;;;;;;4995009;28;20068;-70
2022/10/02 03:17:48;;;;;;;1.67;0.95;;;16.00;65.70;;;;;;4995758;28;20380;-70
2022/10/02 03:20:20;;;;;;;1.50;1.17;;;16.00;65.80;;;;;;4994427;28;20062;-70
2022/10/02 03:22:50;;;;;;;2.75;1.40;;;16.00;65.80;;;;;;4994503;28;20324;-70
2022/10/02 03:25:20;;;;;;;1.73;1.17;;;16.00;65.80;;;;;;4994466;28;20060;-70
2022/10/02 03:27:49;;;;;;;2.42;1.20;;;16.00;65.80;;;;;;4994479;28;20072;-70
2022/10/02 03:30:19;;;;;;;2.00;0.98;;;16.00;65.80;;;;;;4994281;28;20062;-70
2022/10/02 03:32:46;;;;;;;1.63;1.10;;;16.00;65.80;;;;;;4994247;28;20145;-70
2022/10/02 03:35:13;;;;;;;1.40;1.10;;;16.00;65.80;;;;;;4994958;28;20492;-70
2022/10/02 03:37:42;;;;;;;1.27;0.90;;;16.00;65.80;;;;;;4994534;28;20435;-70
2022/10/02 03:40:09;;;;;;;1.88;1.02;;;16.00;65.80;;;;;;4994329;28;20060;-70
2022/10/02 03:42:36;;;;;;;2.00;1.20;;;16.00;65.80;;;;;;4994609;28;20385;-70
2022/10/02 03:45:02;;;;;;;2.15;1.20;;;16.00;65.80;;;;;;4994318;28;20530;-70
2022/10/02 03:47:29;;;;;;;2.33;1.15;;;16.00;65.80;;;;;;4995389;28;20486;-70
2022/10/02 03:49:56;;;;;;;1.77;1.10;;;16.00;65.80;;;;;;4993885;28;20053;-70
2022/10/02 03:52:23;;;;;;;1.98;1.20;;;16.00;65.80;;;;;;4994422;28;20050;-70
2022/10/02 03:54:53;;;;;;;1.38;1.00;;;16.00;65.80;;;;;;4995345;28;20068;-70
2022/10/02 03:57:20;;;;;;;1.20;1.00;;;16.00;65.80;;;;;;4994282;28;20054;-70
2022/10/02 03:59:53;;;;;;;1.85;1.23;;;16.00;65.80;;;;;;4994274;28;20061;-69
2022/10/02 04:02:24;;;;;;;2.00;1.23;;;16.00;65.80;;;;;;4993990;28;20145;-71
2022/10/02 04:05:00;;;;;;;2.03;1.00;;;15.90;65.70;;;;;;4998384;28;20066;-70
2022/10/02 04:07:30;;;;;;;3.58;1.30;;;16.00;65.80;;;;;;4999161;28;20499;-71
2022/10/02 04:10:03;;;;;;;1.92;1.13;;;15.90;65.80;;;;;;4998144;28;20054;-72
2022/10/02 04:12:33;;;;;;;2.13;0.93;;;15.90;65.80;;;;;;4996046;28;20138;-71
2022/10/02 04:15:01;;;;;;;1.95;1.15;;;16.00;65.90;;;;;;4997222;28;20495;-71
2022/10/02 04:17:31;;;;;;;2.13;1.10;;;16.00;65.80;;;;;;4997718;28;20046;-72
2022/10/02 04:20:00;;;;;;;1.92;1.30;;;16.00;65.90;;;;;;4995913;28;20156;-70
2022/10/02 04:22:31;;;;;;;2.65;1.08;;;15.90;65.80;;;;;;4995788;28;20068;-72
2022/10/02 04:25:02;;;;;;;2.22;1.17;;;15.90;65.80;;;;;;4997396;28;20046;-71
2022/10/02 04:27:33;;;;;;;1.58;1.17;;;15.90;65.80;;;;;;4995936;28;20444;-72
2022/10/02 04:30:01;;;;;;;1.88;1.23;;;16.00;65.90;;;;;;4995048;28;20065;-72
2022/10/02 04:32:32;;;;;;;2.17;1.08;;;16.00;66.40;;;;;;4995697;28;20049;-70
2022/10/02 04:35:01;;;;;;;2.95;1.10;;;15.90;65.80;;;;;;4993410;28;20065;-70
2022/10/02 04:37:52;;;;;;;1.77;1.10;;;15.90;65.80;;;;;;4993634;28;20057;-70
2022/10/02 04:40:27;;;;;;;2.13;1.20;;;15.90;65.70;;;;;;4984276;28;20488;-70
2022/10/02 04:42:58;;;;;;;;;;;15.90;65.80;;;;;;4994096;28;20096;-69
2022/10/02 04:45:38;;;;;;;1.70;1.10;;;15.90;65.70;;;;;;4993473;28;19921;-70
2022/10/02 04:48:32;;;;;;;2.00;1.10;;;15.90;65.90;;;;;;4993444;28;20101;-70
2022/10/02 04:51:02;;;;;;;1.85;1.05;;;15.90;65.90;;;;;;4995240;28;20064;-71
2022/10/02 04:53:44;;;;;;;1.42;1.08;;;15.90;65.90;;;;;;4996983;28;20062;-70
2022/10/02 04:56:36;;;;;;;1.75;1.08;;;15.90;65.80;;;;;;4996652;28;20065;-70
2022/10/02 04:59:21;;;;;;;2.17;1.30;;;15.90;65.80;;;;;;4987194;28;20419;-72
2022/10/02 05:01:58;;;;;;;3.15;1.10;;;15.90;65.80;;;;;;4996628;28;20058;-71
2022/10/02 05:04:47;;;;;;;2.45;1.40;;;15.90;65.90;;;;;;4995031;28;20068;-71
2022/10/02 05:07:31;;;;;;;1.83;1.10;;;15.90;65.80;;;;;;4996707;28;20157;-71
2022/10/02 05:10:01;;;;;;;1.40;1.00;;;15.90;65.80;;;;;;4994924;28;20584;-71
2022/10/02 05:12:43;;;;;;;2.30;1.10;;;15.90;65.90;;;;;;4996001;28;20068;-71
2022/10/02 05:15:35;;;;;;;1.20;1.00;;;15.90;65.80;;;;;;4996297;28;20060;-71
2022/10/02 05:18:09;;;;;;;2.05;1.10;;;15.90;66.30;;;;;;4989099;28;20050;-72
2022/10/02 05:20:47;;;;;;;1.60;1.20;;;15.90;65.90;;;;;;4994252;28;20054;-71
2022/10/02 05:23:21;;;;;;;1.52;1.08;;;15.90;65.90;;;;;;4995082;28;20062;-71
2022/10/02 05:25:56;;;;;;;3.30;1.20;;;15.80;65.80;;;;;;4995158;28;20054;-71
2022/10/02 05:28:32;;;;;;;1.45;0.98;;;15.80;65.80;;;;;;4995296;28;20060;-72
2022/10/02 05:31:05;;;;;;;1.50;1.08;;;15.90;65.90;;;;;;4996701;28;20046;-71
2022/10/02 05:33:45;;;;;;;2.85;1.23;;;15.80;65.80;;;;;;4997225;28;20133;-71
2022/10/02 05:36:21;;;;;;;1.45;1.08;;;15.80;65.80;;;;;;4997395;28;20050;-71
2022/10/02 05:39:03;;;;;;;2.50;1.02;;;15.90;65.80;;;;;;4996149;28;20050;-71
2022/10/02 05:41:39;;;;;;;2.03;1.10;;;15.80;65.80;;;;;;4996178;28;20054;-70
2022/10/02 05:44:11;;;;;;;1.20;0.90;;;15.80;65.80;;;;;;4996504;28;20054;-71
2022/10/02 05:46:42;;;;;;;2.55;1.00;;;15.80;65.80;;;;;;4993256;28;20052;-70
2022/10/02 05:49:12;;;;;;;1.50;0.88;;;15.80;65.80;;;;;;4992133;28;20065;-71
2022/10/02 05:51:44;;;;;;;1.80;1.20;;;15.80;65.80;;;;;;4991455;28;20132;-71
2022/10/02 05:54:16;;;;;;;1.23;0.90;;;15.80;65.80;;;;;;4991813;28;20515;-71
2022/10/02 05:56:44;;;;;;;2.13;1.10;;;15.80;65.80;;;;;;4994358;28;20051;-69
2022/10/02 05:59:17;;;;;;;2.17;1.20;;;15.90;65.90;;;;;;4994536;28;20053;-70
2022/10/02 06:01:45;;;;;;;1.95;1.00;;;15.80;65.80;;;;;;4975252;28;20054;-70
2022/10/02 06:04:16;;;;;;;1.30;1.00;;;15.80;65.80;;;;;;4977640;28;20050;-70
2022/10/02 06:06:44;;;;;;;1.20;1.00;;;15.80;65.80;;;;;;4995968;28;20097;-70
2022/10/02 06:09:13;;;;;;;1.95;1.00;;;15.90;65.80;;;;;;4992439;28;20133;-71
2022/10/02 06:11:43;;;;;;;1.85;1.00;;;15.80;65.80;;;;;;4991438;28;20078;-71
2022/10/02 06:14:12;;;;;;;0.90;0.80;;;15.80;65.80;;;;;;4993124;28;20129;-72
2022/10/02 06:16:43;;;;;;;1.65;1.00;;;15.80;65.80;;;;;;4992812;28;20124;-70
2022/10/02 06:19:11;;;;;;;2.45;1.00;;;15.90;65.80;;;;;;4997231;28;20050;-71
2022/10/02 06:21:39;;;;;;;1.20;0.90;;;15.90;65.80;;;;;;4991802;28;20056;-71
2022/10/02 06:24:10;;;;;;;1.42;1.00;;;15.90;65.70;;;;;;4987440;28;20484;-70
2022/10/02 06:26:40;;;;;;;1.73;0.98;;;15.90;65.60;;;;;;4991144;28;20054;-70
2022/10/02 06:29:09;;;;;;;1.27;0.90;;;16.00;65.60;;;;;;4987786;28;20500;-70
2022/10/02 06:31:40;;;;;;;2.00;1.02;;;16.00;65.60;;;;;;4990055;28;20046;-70
2022/10/02 06:34:09;;;;;;;1.30;0.88;;;16.10;65.60;;;;;;4989109;28;20069;-70
2022/10/02 06:36:57;;;;;;;3.40;1.10;;;16.10;65.50;;;;;;4991244;28;20050;-71
2022/10/02 06:39:42;;;;;;;2.15;1.10;;;16.20;65.50;;;;;;5002071;28;20057;-69
2022/10/02 06:42:15;;;;;;;1.75;1.15;;;16.20;65.40;;;;;;4970959;28;20058;-70
2022/10/02 06:44:46;;;;;;;3.35;1.10;;;16.20;65.30;;;;;;4990078;28;20050;-69
2022/10/02 06:47:18;;;;;;;1.95;1.20;;;16.30;65.30;;;;;;4990866;28;20046;-69
2022/10/02 06:49:57;;;;;;;2.15;1.02;;;16.30;65.20;;;;;;4988530;28;20042;-70
2022/10/02 06:52:28;;;;;;;1.92;1.25;;;16.30;65.10;;;;;;4979344;28;20116;-71
2022/10/02 06:55:16;;;;;;;1.50;0.90;;;16.40;65.10;;;;;;4973049;28;20051;-71
2022/10/02 06:58:07;;;;;;;1.83;0.90;;;16.60;66.00;;;;;;4972976;28;20053;-70
2022/10/02 07:00:35;;;;;;;1.70;1.10;;;16.40;65.00;;;;;;4970855;28;20055;-71
2022/10/02 07:03:23;;;;;;;1.65;0.88;;;16.50;65.00;;;;;;4972983;28;20129;-70
2022/10/02 07:06:05;;;;;;;1.77;0.93;;;16.50;65.00;;;;;;4971780;28;20129;-70
2022/10/02 07:08:37;;;;;;;1.60;0.80;;;16.50;64.90;;;;;;4971629;28;20074;-70
2022/10/02 07:11:07;;;;;;;1.60;1.00;;;16.50;64.80;;;;;;4971294;28;20059;-70
2022/10/02 07:13:42;;;;;;;1.77;1.00;;;16.60;64.80;;;;;;4971898;28;20053;-70
2022/10/02 07:16:19;;;;;;;1.98;0.95;;;16.60;64.80;;;;;;4972907;28;20053;-70
2022/10/02 07:18:57;;;;;;;1.60;1.00;;;16.60;64.70;;;;;;4975755;28;20054;-70
2022/10/02 07:21:29;;;;;;;1.60;1.10;;;16.70;64.80;;;;;;4974357;28;20082;-71
2022/10/02 07:23:58;;;;;;;1.65;0.98;;;16.70;64.70;;;;;;4975384;28;20047;-71
2022/10/02 07:26:35;;;;;;;1.95;1.00;;;16.70;64.70;;;;;;4975183;28;20055;-71
2022/10/02 07:29:10;;;;;;;2.28;0.93;;;16.70;64.50;;;;;;4976142;28;20061;-72
2022/10/02 07:31:44;;;;;;;1.40;0.80;;;16.70;64.50;;;;;;4977077;28;20125;-72
2022/10/02 07:34:19;;;;;;;2.30;0.90;;;16.70;65.10;;;;;;4977992;28;20326;-72
2022/10/02 07:36:51;;;;;;;;;;;16.80;64.50;;;;;;4974995;28;20416;-71
2022/10/02 07:39:26;;;;;;;1.67;0.90;;;16.80;64.80;;;;;;4971300;28;19922;-71
2022/10/02 07:42:04;;;;;;;1.20;0.90;;;16.80;64.50;;;;;;4971663;28;20065;-71
2022/10/02 07:44:39;;;;;;;1.63;1.13;;;16.80;64.40;;;;;;4971492;28;20054;-71
2022/10/02 07:47:08;;;;;;;;;;;16.90;64.40;;;;;;4973056;28;20072;-71
2022/10/02 07:49:41;;;;;;;2.50;1.02;;;16.90;64.60;;;;;;4996180;28;20000;-72
2022/10/02 07:52:16;;;;;;;1.65;1.00;;;16.90;64.40;;;;;;4994474;28;20114;-72
2022/10/02 07:55:00;;;;;;;1.67;1.00;;;16.90;64.30;;;;;;4993747;28;20456;-71
2022/10/02 07:57:33;;;;;;;1.75;1.00;;;16.90;66.80;;;;;;4986463;28;20093;-71
2022/10/02 08:00:02;;;;;;;1.92;0.98;;;17.00;64.30;;;;;;4984549;28;20054;-71
2022/10/02 08:02:32;;;;;;;1.55;0.95;;;17.00;64.30;;;;;;4986583;28;20100;-70
2022/10/02 08:05:01;;;;;;;2.40;1.20;;;17.00;64.20;;;;;;4985282;28;20057;-70
2022/10/02 08:07:29;;;;;;;1.38;0.77;;;17.00;64.20;;;;;;4986074;28;20050;-69
2022/10/02 08:09:56;;;;;;;1.42;1.00;;;17.10;64.30;;;;;;4984084;28;20046;-71
2022/10/02 08:12:27;;;;;;;1.95;1.10;;;17.00;64.20;;;;;;4985008;28;20066;-71
2022/10/02 08:14:54;;;;;;;1.10;0.90;;;17.00;64.20;;;;;;4983941;28;20054;-70
2022/10/02 08:17:27;;;;;;;1.35;0.88;;;17.10;64.30;;;;;;4984385;28;20062;-71
2022/10/02 08:19:54;;;;;;;1.45;1.02;;;17.00;64.30;;;;;;4992105;28;20471;-72
2022/10/02 08:22:23;;;;;;;1.73;1.00;;;17.00;64.40;;;;;;4986945;28;20089;-71
2022/10/02 08:24:53;;;;;;;2.13;1.20;;;17.00;64.40;;;;;;4984959;28;20064;-72
2022/10/02 08:27:21;;;;;;;1.58;1.00;;;17.10;64.50;;;;;;4992242;28;20141;-70
2022/10/02 08:29:49;;;;;;;1.75;0.90;;;17.00;64.60;;;;;;4982679;28;20055;-70
2022/10/02 08:32:15;;;;;;;1.35;0.90;;;17.00;64.60;;;;;;4983166;28;20054;-70
2022/10/02 08:34:42;;;;;;;1.52;0.82;;;17.10;64.70;;;;;;4985733;28;20050;-71
2022/10/02 08:37:19;;;;;;;2.25;1.10;;;17.00;64.70;;;;;;4984509;28;20126;-71
2022/10/02 08:40:25;;;;;;;2.13;1.10;;;17.10;64.80;;;;;;4984445;28;20057;-70
2022/10/02 08:43:16;;;;;;;1.83;0.90;;;17.00;64.70;;;;;;4986373;28;20089;-71
2022/10/02 08:46:11;;;;;;;1.50;1.00;;;17.00;64.80;;;;;;4995138;28;20455;-71
2022/10/02 08:49:06;;;;;;;2.75;1.10;;;17.00;64.90;;;;;;4992355;28;20108;-71
2022/10/02 08:52:08;;;;;;;2.50;0.98;;;17.00;64.80;;;;;;4993734;28;20046;-71
2022/10/02 08:54:52;;;;;;;1.88;1.08;;;17.00;64.90;;;;;;4993386;28;20043;-71
2022/10/02 08:57:51;;;;;;;1.50;1.00;;;17.00;65.00;;;;;;4993994;28;20065;-71
2022/10/02 09:00:22;;;;;;;2.65;1.30;;;17.00;64.90;;;;;;4974006;28;20058;-71
2022/10/02 09:03:38;;;;;;;1.38;0.90;;;16.90;64.90;;;;;;4973406;28;20084;-71
2022/10/02 09:06:46;;;;;;;2.80;1.10;;;16.90;64.80;;;;;;4949103;28;20059;-71
2022/10/02 09:09:56;;;;;;;1.77;1.13;;;16.90;65.10;;;;;;4972821;28;20061;-72
2022/10/02 09:12:47;;;;;;;2.95;1.17;;;17.00;65.30;;;;;;4946058;28;20113;-70
2022/10/02 09:15:15;;;;;;;1.85;1.08;;;17.00;65.40;;;;;;4974840;28;20432;-70
2022/10/02 09:17:49;;;;;;;2.17;1.20;;;17.00;65.40;;;;;;4974463;28;20042;-70
2022/10/02 09:20:34;;;;;;;2.35;1.20;;;17.00;65.50;;;;;;4974242;28;20050;-70
2022/10/02 09:23:25;;;;;;;3.75;1.20;;;17.10;65.70;;;;;;4974187;28;20081;-71
2022/10/02 09:25:55;;;;;;;1.50;0.90;;;17.10;65.80;;;;;;4941952;28;20134;-69
2022/10/02 09:28:55;;;;;;;2.53;1.10;;;17.10;65.80;;;;;;4973336;28;20085;-69
2022/10/02 09:31:42;;;;;;;2.30;1.20;;;17.10;66.40;;;;;;4974396;28;20051;-71
2022/10/02 09:34:25;;;;;;;2.25;1.17;;;17.10;66.50;;;;;;4974208;28;20512;-71
2022/10/02 09:37:07;;;;;;;4.30;1.00;;;17.10;66.60;;;;;;4982826;28;20138;-69
2022/10/02 09:39:58;;;;;;;4.10;1.23;;;17.10;66.70;;;;;;4990540;28;20047;-69
2022/10/02 09:43:09;;;;;;;1.90;1.15;;;17.10;66.70;;;;;;4990729;28;20046;-69
2022/10/02 09:45:55;;;;;;;1.75;1.20;;;17.10;66.50;;;;;;4989150;28;20406;-69
2022/10/02 09:48:47;;;;;;;1.83;1.05;;;17.10;66.60;;;;;;4993192;28;20432;-70
2022/10/02 09:52:02;;;;;;;2.83;1.10;;;17.10;66.50;;;;;;4991665;28;20054;-72
2022/10/02 09:55:10;;;;;;;2.67;1.05;;;17.10;66.50;;;;;;4990087;28;20062;-71
2022/10/02 09:58:08;;;;;;;2.22;1.10;;;17.10;66.60;;;;;;4991703;28;20411;-71
2022/10/02 10:00:50;;;;;;;2.05;1.10;;;17.10;66.60;;;;;;4959041;28;20046;-72
2022/10/02 10:03:59;;;;;;;1.60;1.00;;;17.10;66.60;;;;;;4991205;28;20487;-70
2022/10/02 10:06:52;;;;;;;3.47;1.20;;;17.10;66.50;;;;;;4988955;28;20054;-72
2022/10/02 10:09:41;;;;;;;2.42;1.30;;;17.00;66.40;;;;;;4990945;28;20050;-70
2022/10/02 10:12:15;;;;;;;4.00;1.20;;;17.00;66.40;;;;;;4990205;28;20042;-69
2022/10/02 10:15:05;;;;;;;3.00;1.80;;;17.10;66.40;;;;;;4991287;28;20058;-70
2022/10/02 10:18:03;;;;;;;4.05;1.30;;;17.10;66.30;;;;;;4960093;28;20392;-71
2022/10/02 10:21:02;;;;;;;1.98;1.00;;;17.10;66.20;;;;;;4991390;28;20085;-70
2022/10/02 10:23:50;;;;;;;1.55;0.95;;;17.10;66.30;;;;;;4991402;28;20056;-70
2022/10/02 10:26:48;;;;;;;2.63;0.98;;;17.10;66.30;;;;;;4993085;28;20081;-70
2022/10/02 10:29:42;;;;;;;3.83;1.27;;;17.00;66.20;;;;;;4991778;28;20515;-70
2022/10/02 10:32:26;;;;;;;2.53;1.02;;;17.10;66.30;;;;;;4992308;28;20170;-70
2022/10/02 10:35:07;;;;;;;3.10;1.20;;;17.10;66.40;;;;;;4992930;28;20482;-70
2022/10/02 10:40:37;;;;;;;2.50;1.30;;;17.10;66.50;;;;;;4992499;28;20496;-69
2022/10/02 10:43:41;;;;;;;2.63;1.25;;;17.20;66.50;;;;;;4991157;28;20058;-69
2022/10/02 10:46:16;;;;;;;1.85;1.05;;;17.20;66.40;;;;;;4991175;28;20069;-69
2022/10/02 10:49:13;;;;;;;3.20;1.20;;;17.20;66.20;;;;;;4992574;28;20383;-70
2022/10/02 10:51:44;;;;;;;3.13;1.02;;;17.30;66.20;;;;;;4992209;28;20061;-70
2022/10/02 10:54:47;;;;;;;2.67;1.10;;;17.30;66.00;;;;;;4991061;28;20078;-70
2022/10/02 10:57:28;;;;;;;2.40;1.10;;;17.40;66.00;;;;;;4991183;28;20062;-70
2022/10/02 11:00:20;;;;;;;1.70;1.02;;;17.40;65.80;;;;;;4992128;28;20506;-70
2022/10/02 11:03:23;;;;;;;5.15;1.20;;;17.40;65.70;;;;;;4991562;28;20056;-70
2022/10/02 11:06:01;;;;;;;1.58;1.10;;;17.50;65.80;;;;;;4992108;28;20516;-70
2022/10/02 11:08:44;;;;;;;4.35;1.25;;;17.50;65.80;;;;;;4992053;28;20488;-70
2022/10/02 11:11:16;;;;;;;2.45;1.10;;;17.50;65.70;;;;;;4994372;28;20046;-72
2022/10/02 11:13:53;;;;;;;2.22;1.30;;;17.50;65.60;;;;;;4993987;28;20060;-71
2022/10/02 11:16:49;;;;;;;1.98;1.00;;;17.60;65.60;;;;;;4990108;28;20145;-70
2022/10/02 11:19:33;;;;;;;4.15;1.23;;;17.60;65.60;;;;;;4991004;28;20082;-70
2022/10/02 11:22:33;;;;;;;2.60;1.30;;;17.60;65.50;;;;;;4991671;28;20046;-70
2022/10/02 11:25:18;;;;;;;2.33;1.10;;;17.60;65.40;;;;;;4980940;28;20054;-70
2022/10/02 11:28:20;;;;;;;5.00;1.30;;;17.60;65.40;;;;;;4988925;28;20042;-70
2022/10/02 11:30:53;;;;;;;2.72;1.30;;;17.60;65.50;;;;;;4989299;28;20047;-70
2022/10/02 11:33:47;;;;;;;2.80;1.10;;;17.50;65.50;;;;;;4995290;28;20050;-70
2022/10/02 11:36:41;;;;;;;2.90;1.13;;;17.60;65.50;;;;;;4994910;28;20061;-71
2022/10/02 11:39:15;;;;;;;3.38;1.00;;;17.60;65.50;;;;;;4994668;28;20065;-71
2022/10/02 11:42:04;;;;;;;1.98;1.10;;;17.50;65.50;;;;;;4993926;28;20082;-71
2022/10/02 11:45:11;;;;;;;2.65;1.20;;;17.50;65.50;;;;;;4992390;28;20055;-71
2022/10/02 11:47:51;;;;;;;3.67;1.10;;;17.50;65.50;;;;;;4976744;28;20054;-70
2022/10/02 11:50:35;;;;;;;2.85;1.20;;;17.50;65.50;;;;;;4974701;28;20063;-71
2022/10/02 11:53:10;;;;;;;2.55;1.27;;;17.50;65.50;;;;;;4980519;28;20050;-70
2022/10/02 11:55:44;;;;;;;1.70;1.10;;;17.50;65.60;;;;;;4974148;28;20058;-70
2022/10/02 11:58:16;;;;;;;3.25;1.20;;;17.10;65.30;;;;;;4974772;28;20118;-71
2022/10/02 12:00:54;;;;;;;1.67;1.00;;;17.50;65.60;;;;;;4975633;28;20050;-71
2022/10/02 12:03:26;;;;;;;2.50;1.08;;;17.50;65.50;;;;;;4975594;28;20512;-70
2022/10/02 12:05:56;;;;;;;2.67;1.33;;;17.40;65.60;;;;;;4975907;28;20061;-72
2022/10/02 12:08:30;;;;;;;1.80;0.90;;;17.40;65.60;;;;;;4974814;28;20058;-73
2022/10/02 12:10:58;;;;;;;5.45;1.40;;;17.40;65.60;;;;;;4975642;28;20050;-72
2022/10/02 12:13:53;;;;;;;4.63;1.10;;;17.40;65.60;;;;;;4975460;28;20531;-71
2022/10/02 12:16:25;;;;;;;2.67;1.13;;;17.40;65.50;;;;;;4953414;28;20102;-72
2022/10/02 12:18:59;;;;;;;3.95;1.25;;;17.40;65.60;;;;;;4975338;28;20054;-71
2022/10/02 12:27:14;;;;;;;3.17;1.27;;;17.40;65.60;;;;;;4974336;28;20051;-71
2022/10/02 12:30:01;;;;;;;3.72;1.35;;;17.40;65.60;;;;;;4974316;28;20050;-70
2022/10/02 12:32:48;;;;;;;2.75;1.10;;;17.40;65.50;;;;;;4975659;28;20055;-71
2022/10/02 12:35:33;;;;;;;3.83;1.20;;;17.40;65.60;;;;;;4975678;28;20063;-70
2022/10/02 12:38:05;;;;;;;2.17;1.10;;;17.40;65.60;;;;;;4974282;28;20051;-72
2022/10/02 12:40:34;;;;;;;2.00;1.08;;;17.40;65.60;;;;;;4973854;28;20055;-70
2022/10/02 12:43:34;;;;;;;2.47;1.20;;;17.40;65.50;;;;;;4972761;28;20228;-71
2022/10/02 12:46:12;;;;;;;2.97;0.82;;;17.40;65.40;;;;;;4973389;28;20569;-71
2022/10/02 12:48:48;;;;;;;5.47;1.20;;;17.40;65.50;;;;;;4973055;28;20065;-71
2022/10/02 12:51:33;;;;;;;10.23;1.17;;;17.50;65.60;;;;;;4991994;28;20071;-72
2022/10/02 12:54:23;;;;;;;2.50;1.08;;;17.40;65.60;;;;;;4975173;28;20065;-72
2022/10/02 12:57:50;;;;;;;3.10;1.20;;;17.50;65.70;;;;;;4980955;28;20050;-72
2022/10/02 12:59:58;;;;;;;2.60;1.10;;;17.50;65.70;;;;;;4990398;28;20064;-71
2022/10/02 13:03:00;;;;;;;1.67;0.93;;;17.50;65.80;;;;;;4993304;28;20057;-71
2022/10/02 13:05:50;;;;;;;3.50;1.05;;;17.50;65.80;;;;;;4992459;28;20093;-71
2022/10/02 13:08:24;;;;;;;3.22;1.42;;;17.50;66.00;;;;;;4991820;28;20054;-70
2022/10/02 13:10:56;;;;;;;1.58;0.90;;;17.50;66.00;;;;;;4991065;28;20133;-71
2022/10/02 13:13:42;;;;;;;2.50;1.17;;;17.50;66.00;;;;;;4990988;28;20058;-71
2022/10/02 13:16:11;;;;;;;2.42;1.13;;;17.50;66.00;;;;;;4993067;28;20058;-70
2022/10/02 13:18:57;;;;;;;2.83;1.30;;;17.50;66.10;;;;;;4993650;28;20066;-72
2022/10/02 13:21:25;;;;;;;3.03;1.30;;;17.50;66.00;;;;;;4994201;28;20062;-71
2022/10/02 13:23:59;;;;;;;1.83;1.02;;;17.50;66.10;;;;;;4994541;28;20062;-72
2022/10/02 13:26:30;;;;;;;2.35;1.10;;;17.50;66.00;;;;;;4992827;28;20061;-71
2022/10/02 13:29:25;;;;;;;2.38;1.10;;;17.50;65.90;;;;;;4992773;28;20058;-71
2022/10/02 13:31:58;;;;;;;3.10;1.25;;;17.50;65.80;;;;;;4993923;28;20106;-71
2022/10/02 13:34:33;;;;;;;3.47;1.23;;;17.50;65.90;;;;;;4993008;28;20054;-71
2022/10/02 13:37:11;;;;;;;2.53;1.10;;;17.50;66.00;;;;;;4993663;28;20068;-71
2022/10/02 13:39:50;;;;;;;3.42;1.10;;;17.50;65.90;;;;;;4993252;28;20060;-70
2022/10/02 13:42:23;;;;;;;2.45;1.20;;;17.50;66.00;;;;;;4993476;28;20050;-72
2022/10/02 13:44:55;;;;;;;3.47;1.17;;;17.40;65.90;;;;;;4993123;28;20077;-71
2022/10/02 13:47:33;;;;;;;2.55;0.98;;;17.40;65.90;;;;;;4994354;28;20050;-71